sensor_id;sensor_type;location;lat;lon;timestamp;pressure;altitude;pressure_sealevel;temperature;humidity
36502;BME280;25393;46.108;3.390;2022-08-03T00:00:26;97862.84;;;21.51;58.61
36502;BME280;25393;46.108;3.390;2022-08-03T00:02:53;97876.28;;;21.63;58.88
36502;BME280;25393;46.108;3.390;2022-08-03T00:05:20;97863.59;;;21.63;59.23
36502;BME280;25393;46.108;3.390;2022-08-03T00:07:47;97850.56;;;21.43;59.78
36502;BME280;25393;46.108;3.390;2022-08-03T00:10:15;97865.31;;;21.53;59.64
36502;BME280;25393;46.108;3.390;2022-08-03T00:12:42;97878.97;;;21.63;59.67
36502;BME280;25393;46.108;3.390;2022-08-03T00:15:09;97878.16;;;21.62;59.69
36502;BME280;25393;46.108;3.390;2022-08-03T00:17:42;97854.75;;;21.51;59.93
36502;BME280;25393;46.108;3.390;2022-08-03T00:20:22;97840.19;;;21.35;59.78
36502;BME280;25393;46.108;3.390;2022-08-03T00:22:52;97854.91;;;21.45;60.08
36502;BME280;25393;46.108;3.390;2022-08-03T00:25:22;97849.50;;;21.45;60.59
36502;BME280;25393;46.108;3.390;2022-08-03T00:27:52;97848.47;;;21.46;60.75
36502;BME280;25393;46.108;3.390;2022-08-03T00:30:21;97863.81;;;21.45;60.97
36502;BME280;25393;46.108;3.390;2022-08-03T00:32:52;97875.41;;;21.46;60.75
36502;BME280;25393;46.108;3.390;2022-08-03T00:35:19;97846.63;;;21.34;60.60
36502;BME280;25393;46.108;3.390;2022-08-03T00:38:08;97860.63;;;21.48;60.67
36502;BME280;25393;46.108;3.390;2022-08-03T00:40:34;97835.25;;;21.32;60.52
36502;BME280;25393;46.108;3.390;2022-08-03T00:43:04;97857.59;;;21.45;60.81
36502;BME280;25393;46.108;3.390;2022-08-03T00:45:37;97842.56;;;21.32;60.47
36502;BME280;25393;46.108;3.390;2022-08-03T00:48:05;97846.31;;;21.31;60.72
36502;BME280;25393;46.108;3.390;2022-08-03T00:50:53;97839.66;;;21.22;61.10
36502;BME280;25393;46.108;3.390;2022-08-03T00:53:20;97838.41;;;21.13;61.38
36502;BME280;25393;46.108;3.390;2022-08-03T00:55:47;97850.84;;;21.14;61.56
36502;BME280;25393;46.108;3.390;2022-08-03T00:58:14;97844.06;;;21.00;61.61
36502;BME280;25393;46.108;3.390;2022-08-03T01:00:41;97833.44;;;20.93;61.54
36502;BME280;25393;46.108;3.390;2022-08-03T01:03:09;97847.47;;;20.95;62.15
36502;BME280;25393;46.108;3.390;2022-08-03T01:05:54;97817.31;;;20.70;62.18
36502;BME280;25393;46.108;3.390;2022-08-03T01:17:24;97840.72;;;20.81;63.25
36502;BME280;25393;46.108;3.390;2022-08-03T01:20:03;97821.88;;;20.69;63.57
36502;BME280;25393;46.108;3.390;2022-08-03T01:22:56;97845.28;;;20.80;64.00
36502;BME280;25393;46.108;3.390;2022-08-03T01:31:00;97818.97;;;20.71;64.77
36502;BME280;25393;46.108;3.390;2022-08-03T01:33:38;97833.47;;;20.70;64.88
36502;BME280;25393;46.108;3.390;2022-08-03T01:36:13;97834.25;;;20.30;66.27
36502;BME280;25393;46.108;3.390;2022-08-03T01:38:56;97815.38;;;19.95;67.40
36502;BME280;25393;46.108;3.390;2022-08-03T01:41:29;97805.53;;;19.55;69.20
36502;BME280;25393;46.108;3.390;2022-08-03T01:43:57;97795.44;;;19.38;70.35
36502;BME280;25393;46.108;3.390;2022-08-03T01:46:46;97842.13;;;19.56;70.71
36502;BME280;25393;46.108;3.390;2022-08-03T01:49:17;97841.19;;;19.62;70.41
36502;BME280;25393;46.108;3.390;2022-08-03T01:51:46;97788.34;;;19.67;69.56
36502;BME280;25393;46.108;3.390;2022-08-03T01:54:33;97805.22;;;19.86;68.70
36502;BME280;25393;46.108;3.390;2022-08-03T01:57:02;97824.16;;;20.14;68.25
36502;BME280;25393;46.108;3.390;2022-08-03T01:59:29;97816.78;;;20.10;67.83
36502;BME280;25393;46.108;3.390;2022-08-03T02:01:58;97815.66;;;20.29;67.42
36502;BME280;25393;46.108;3.390;2022-08-03T02:04:46;97803.72;;;20.36;65.98
36502;BME280;25393;46.108;3.390;2022-08-03T02:07:14;97833.41;;;20.53;65.85
36502;BME280;25393;46.108;3.390;2022-08-03T02:09:44;97839.41;;;20.43;66.29
36502;BME280;25393;46.108;3.390;2022-08-03T02:12:13;97832.72;;;20.46;66.57
36502;BME280;25393;46.108;3.390;2022-08-03T02:14:42;97832.03;;;20.39;66.46
36502;BME280;25393;46.108;3.390;2022-08-03T02:17:10;97820.66;;;20.25;66.69
36502;BME280;25393;46.108;3.390;2022-08-03T02:19:38;97812.50;;;20.32;66.20
36502;BME280;25393;46.108;3.390;2022-08-03T02:22:09;97817.88;;;20.43;65.24
36502;BME280;25393;46.108;3.390;2022-08-03T02:24:37;97803.94;;;20.35;65.44
36502;BME280;25393;46.108;3.390;2022-08-03T02:27:09;97800.34;;;20.29;65.62
36502;BME280;25393;46.108;3.390;2022-08-03T02:29:39;97804.63;;;20.30;65.45
36502;BME280;25393;46.108;3.390;2022-08-03T02:32:10;97801.56;;;20.27;65.38
36502;BME280;25393;46.108;3.390;2022-08-03T02:34:41;97825.72;;;20.33;65.80
36502;BME280;25393;46.108;3.390;2022-08-03T02:37:11;97813.78;;;20.29;65.37
36502;BME280;25393;46.108;3.390;2022-08-03T02:39:39;97792.22;;;20.18;65.52
36502;BME280;25393;46.108;3.390;2022-08-03T02:42:08;97794.91;;;20.18;65.86
36502;BME280;25393;46.108;3.390;2022-08-03T02:44:38;97813.88;;;20.34;65.59
36502;BME280;25393;46.108;3.390;2022-08-03T02:47:08;97798.91;;;20.15;65.37
36502;BME280;25393;46.108;3.390;2022-08-03T02:49:37;97819.34;;;20.16;65.55
36502;BME280;25393;46.108;3.390;2022-08-03T02:52:19;97811.28;;;20.16;66.05
36502;BME280;25393;46.108;3.390;2022-08-03T02:54:48;97802.28;;;19.99;66.46
36502;BME280;25393;46.108;3.390;2022-08-03T02:57:24;97767.09;;;19.77;66.41
36502;BME280;25393;46.108;3.390;2022-08-03T02:59:53;97792.00;;;20.08;65.80
36502;BME280;25393;46.108;3.390;2022-08-03T03:02:21;97814.34;;;20.31;64.79
36502;BME280;25393;46.108;3.390;2022-08-03T03:04:50;97784.63;;;20.03;64.98
36502;BME280;25393;46.108;3.390;2022-08-03T03:07:37;97808.16;;;20.19;64.97
36502;BME280;25393;46.108;3.390;2022-08-03T03:10:22;97786.75;;;19.89;65.56
36502;BME280;25393;46.108;3.390;2022-08-03T03:12:53;97812.25;;;19.87;66.16
36502;BME280;25393;46.108;3.390;2022-08-03T03:15:21;97814.78;;;19.82;66.87
36502;BME280;25393;46.108;3.390;2022-08-03T03:17:50;97788.38;;;19.79;66.39
36502;BME280;25393;46.108;3.390;2022-08-03T03:20:17;97786.25;;;19.81;66.58
36502;BME280;25393;46.108;3.390;2022-08-03T03:22:57;97803.59;;;19.97;66.37
36502;BME280;25393;46.108;3.390;2022-08-03T03:25:25;97815.03;;;20.04;65.76
36502;BME280;25393;46.108;3.390;2022-08-03T03:27:52;97795.75;;;19.83;66.57
36502;BME280;25393;46.108;3.390;2022-08-03T03:30:23;97776.00;;;19.66;66.93
36502;BME280;25393;46.108;3.390;2022-08-03T03:32:50;97812.81;;;19.89;66.51
36502;BME280;25393;46.108;3.390;2022-08-03T03:35:18;97804.66;;;19.84;66.63
36502;BME280;25393;46.108;3.390;2022-08-03T03:37:47;97793.75;;;19.67;66.42
36502;BME280;25393;46.108;3.390;2022-08-03T03:40:14;97805.91;;;19.70;66.45
36502;BME280;25393;46.108;3.390;2022-08-03T03:42:40;97809.19;;;19.72;66.55
36502;BME280;25393;46.108;3.390;2022-08-03T03:45:08;97796.06;;;19.64;66.60
36502;BME280;25393;46.108;3.390;2022-08-03T03:47:35;97790.13;;;19.62;66.63
36502;BME280;25393;46.108;3.390;2022-08-03T03:50:03;97814.78;;;19.70;66.51
36502;BME280;25393;46.108;3.390;2022-08-03T03:52:32;97795.13;;;19.58;66.49
36502;BME280;25393;46.108;3.390;2022-08-03T03:54:59;97811.75;;;19.78;66.30
36502;BME280;25393;46.108;3.390;2022-08-03T03:57:27;97818.66;;;19.63;66.75
36502;BME280;25393;46.108;3.390;2022-08-03T03:59:53;97777.88;;;19.36;67.20
36502;BME280;25393;46.108;3.390;2022-08-03T04:02:20;97789.56;;;19.30;67.09
36502;BME280;25393;46.108;3.390;2022-08-03T04:04:47;97816.16;;;19.50;67.36
36502;BME280;25393;46.108;3.390;2022-08-03T04:08:08;97820.00;;;19.54;67.22
36502;BME280;25393;46.108;3.390;2022-08-03T04:11:18;97818.41;;;19.53;66.89
36502;BME280;25393;46.108;3.390;2022-08-03T04:16:30;97817.91;;;19.44;66.48
36502;BME280;25393;46.108;3.390;2022-08-03T04:19:01;97813.06;;;19.34;66.29
36502;BME280;25393;46.108;3.390;2022-08-03T04:21:29;97822.06;;;19.40;67.02
36502;BME280;25393;46.108;3.390;2022-08-03T04:24:00;97823.91;;;19.28;67.24
36502;BME280;25393;46.108;3.390;2022-08-03T04:26:30;97814.97;;;19.16;67.25
36502;BME280;25393;46.108;3.390;2022-08-03T04:28:59;97832.84;;;19.10;67.48
36502;BME280;25393;46.108;3.390;2022-08-03T04:31:27;97811.75;;;18.95;67.74
36502;BME280;25393;46.108;3.390;2022-08-03T04:33:55;97826.66;;;19.10;68.32
36502;BME280;25393;46.108;3.390;2022-08-03T04:36:27;97812.03;;;19.06;68.08
36502;BME280;25393;46.108;3.390;2022-08-03T04:39:28;97818.53;;;19.28;70.72
36502;BME280;25393;46.108;3.390;2022-08-03T04:42:01;97823.78;;;19.53;68.19
36502;BME280;25393;46.108;3.390;2022-08-03T04:44:40;97823.06;;;19.57;67.65
36502;BME280;25393;46.108;3.390;2022-08-03T04:47:08;97821.69;;;19.66;68.04
36502;BME280;25393;46.108;3.390;2022-08-03T04:49:36;97825.19;;;19.78;67.50
36502;BME280;25393;46.108;3.390;2022-08-03T04:52:06;97813.50;;;19.84;66.96
36502;BME280;25393;46.108;3.390;2022-08-03T04:54:41;97818.53;;;19.92;65.93
36502;BME280;25393;46.108;3.390;2022-08-03T04:57:17;97819.50;;;19.86;65.91
36502;BME280;25393;46.108;3.390;2022-08-03T04:59:50;97823.25;;;19.97;65.66
36502;BME280;25393;46.108;3.390;2022-08-03T05:02:28;97822.53;;;20.02;64.85
36502;BME280;25393;46.108;3.390;2022-08-03T05:04:55;97836.56;;;19.92;65.41
36502;BME280;25393;46.108;3.390;2022-08-03T05:07:24;97818.03;;;19.61;66.69
36502;BME280;25393;46.108;3.390;2022-08-03T05:10:04;97842.25;;;19.61;67.41
36502;BME280;25393;46.108;3.390;2022-08-03T05:12:41;97827.00;;;19.43;68.00
36502;BME280;25393;46.108;3.390;2022-08-03T05:15:09;97846.69;;;19.55;68.41
36502;BME280;25393;46.108;3.390;2022-08-03T05:17:39;97841.97;;;19.51;68.52
36502;BME280;25393;46.108;3.390;2022-08-03T05:20:06;97856.13;;;19.58;68.85
36502;BME280;25393;46.108;3.390;2022-08-03T05:22:37;97851.63;;;19.81;67.73
36502;BME280;25393;46.108;3.390;2022-08-03T05:25:04;97839.53;;;19.61;67.84
36502;BME280;25393;46.108;3.390;2022-08-03T05:27:31;97850.22;;;19.37;69.10
36502;BME280;25393;46.108;3.390;2022-08-03T05:29:57;97857.91;;;19.34;69.46
36502;BME280;25393;46.108;3.390;2022-08-03T05:32:44;97852.13;;;19.19;69.92
36502;BME280;25393;46.108;3.390;2022-08-03T05:35:10;97850.22;;;19.08;70.83
36502;BME280;25393;46.108;3.390;2022-08-03T05:37:57;97860.59;;;19.04;71.28
36502;BME280;25393;46.108;3.390;2022-08-03T05:40:24;97866.19;;;19.03;71.73
36502;BME280;25393;46.108;3.390;2022-08-03T05:42:52;97857.50;;;18.89;72.74
36502;BME280;25393;46.108;3.390;2022-08-03T05:45:18;97863.09;;;18.87;72.76
36502;BME280;25393;46.108;3.390;2022-08-03T05:47:51;97863.34;;;18.98;72.85
36502;BME280;25393;46.108;3.390;2022-08-03T05:50:19;97868.25;;;19.19;72.39
36502;BME280;25393;46.108;3.390;2022-08-03T05:52:48;97868.16;;;19.25;72.14
36502;BME280;25393;46.108;3.390;2022-08-03T05:55:18;97870.84;;;19.25;72.14
36502;BME280;25393;46.108;3.390;2022-08-03T05:57:46;97868.88;;;19.32;72.10
36502;BME280;25393;46.108;3.390;2022-08-03T06:00:15;97865.88;;;19.40;71.42
36502;BME280;25393;46.108;3.390;2022-08-03T06:02:41;97877.19;;;19.61;71.36
36502;BME280;25393;46.108;3.390;2022-08-03T06:05:08;97875.81;;;19.70;71.21
36502;BME280;25393;46.108;3.390;2022-08-03T06:07:35;97875.47;;;19.78;70.73
36502;BME280;25393;46.108;3.390;2022-08-03T06:10:03;97859.53;;;19.65;70.63
36502;BME280;25393;46.108;3.390;2022-08-03T06:12:50;97857.34;;;19.73;70.26
36502;BME280;25393;46.108;3.390;2022-08-03T06:15:18;97864.50;;;19.79;70.52
36502;BME280;25393;46.108;3.390;2022-08-03T06:17:50;97867.09;;;20.09;69.50
36502;BME280;25393;46.108;3.390;2022-08-03T06:20:18;97871.28;;;20.17;69.78
36502;BME280;25393;46.108;3.390;2022-08-03T06:22:46;97873.44;;;20.38;67.70
36502;BME280;25393;46.108;3.390;2022-08-03T06:25:26;97868.41;;;20.41;67.76
36502;BME280;25393;46.108;3.390;2022-08-03T06:27:52;97863.63;;;20.32;67.78
36502;BME280;25393;46.108;3.390;2022-08-03T06:30:19;97853.06;;;20.30;67.66
36502;BME280;25393;46.108;3.390;2022-08-03T06:32:47;97873.22;;;20.51;68.34
36502;BME280;25393;46.108;3.390;2022-08-03T06:35:18;97867.66;;;20.69;67.71
36502;BME280;25393;46.108;3.390;2022-08-03T06:37:53;97868.31;;;21.00;65.75
36502;BME280;25393;46.108;3.390;2022-08-03T06:40:23;97856.44;;;21.12;65.43
36502;BME280;25393;46.108;3.390;2022-08-03T06:42:57;97871.53;;;21.25;65.13
36502;BME280;25393;46.108;3.390;2022-08-03T06:45:25;97861.69;;;21.19;64.53
36502;BME280;25393;46.108;3.390;2022-08-03T06:48:12;97838.16;;;21.42;63.18
36502;BME280;25393;46.108;3.390;2022-08-03T06:50:40;97864.00;;;21.72;62.93
36502;BME280;25393;46.108;3.390;2022-08-03T06:53:07;97857.63;;;21.78;62.31
36502;BME280;25393;46.108;3.390;2022-08-03T06:55:43;97874.31;;;21.75;62.53
36502;BME280;25393;46.108;3.390;2022-08-03T06:58:19;97865.00;;;21.82;62.13
36502;BME280;25393;46.108;3.390;2022-08-03T07:00:49;97856.13;;;22.15;60.48
36502;BME280;25393;46.108;3.390;2022-08-03T07:03:19;97869.41;;;22.55;59.34
36502;BME280;25393;46.108;3.390;2022-08-03T07:05:48;97858.84;;;22.54;59.43
36502;BME280;25393;46.108;3.390;2022-08-03T07:08:16;97873.47;;;22.58;59.71
36502;BME280;25393;46.108;3.390;2022-08-03T07:11:00;97831.97;;;22.64;57.91
36502;BME280;25393;46.108;3.390;2022-08-03T07:13:27;97853.66;;;23.12;58.78
36502;BME280;25393;46.108;3.390;2022-08-03T07:15:54;97841.25;;;23.38;56.76
36502;BME280;25393;46.108;3.390;2022-08-03T07:18:22;97837.63;;;23.54;56.62
36502;BME280;25393;46.108;3.390;2022-08-03T07:20:56;97857.75;;;23.95;55.54
36502;BME280;25393;46.108;3.390;2022-08-03T07:23:31;97852.38;;;24.00;54.68
36502;BME280;25393;46.108;3.390;2022-08-03T07:25:57;97836.69;;;24.02;54.38
36502;BME280;25393;46.108;3.390;2022-08-03T07:28:24;97835.38;;;24.42;53.52
36502;BME280;25393;46.108;3.390;2022-08-03T07:30:51;97832.03;;;24.76;53.11
36502;BME280;25393;46.108;3.390;2022-08-03T07:33:17;97855.25;;;25.14;51.86
36502;BME280;25393;46.108;3.390;2022-08-03T07:35:44;97865.03;;;25.30;51.07
36502;BME280;25393;46.108;3.390;2022-08-03T07:38:11;97850.47;;;25.52;50.58
36502;BME280;25393;46.108;3.390;2022-08-03T07:40:37;97857.06;;;25.86;49.22
36502;BME280;25393;46.108;3.390;2022-08-03T07:43:11;97853.78;;;25.94;48.36
36502;BME280;25393;46.108;3.390;2022-08-03T07:45:38;97862.50;;;26.31;49.01
36502;BME280;25393;46.108;3.390;2022-08-03T07:48:08;97852.06;;;26.74;47.31
36502;BME280;25393;46.108;3.390;2022-08-03T07:50:38;97841.34;;;27.03;45.27
36502;BME280;25393;46.108;3.390;2022-08-03T07:53:04;97850.84;;;27.15;45.02
36502;BME280;25393;46.108;3.390;2022-08-03T07:55:35;97837.78;;;27.12;46.13
36502;BME280;25393;46.108;3.390;2022-08-03T07:58:06;97840.34;;;27.48;45.42
36502;BME280;25393;46.108;3.390;2022-08-03T08:00:35;97854.91;;;28.01;44.58
36502;BME280;25393;46.108;3.390;2022-08-03T08:03:03;97855.31;;;28.47;44.27
36502;BME280;25393;46.108;3.390;2022-08-03T08:05:30;97825.88;;;28.77;43.83
36502;BME280;25393;46.108;3.390;2022-08-03T08:07:59;97831.56;;;29.23;40.61
36502;BME280;25393;46.108;3.390;2022-08-03T08:10:26;97820.44;;;29.39;40.16
36502;BME280;25393;46.108;3.390;2022-08-03T08:12:54;97840.50;;;29.66;40.73
36502;BME280;25393;46.108;3.390;2022-08-03T08:15:21;97832.53;;;29.70;39.10
36502;BME280;25393;46.108;3.390;2022-08-03T08:17:53;97838.53;;;29.91;39.28
36502;BME280;25393;46.108;3.390;2022-08-03T08:20:22;97844.50;;;30.25;40.32
36502;BME280;25393;46.108;3.390;2022-08-03T08:22:59;97843.97;;;30.69;39.98
36502;BME280;25393;46.108;3.390;2022-08-03T08:25:28;97851.50;;;31.04;38.18
36502;BME280;25393;46.108;3.390;2022-08-03T08:27:56;97826.84;;;31.18;36.74
36502;BME280;25393;46.108;3.390;2022-08-03T08:30:42;97842.91;;;31.47;36.78
36502;BME280;25393;46.108;3.390;2022-08-03T08:33:09;97838.44;;;31.51;36.89
36502;BME280;25393;46.108;3.390;2022-08-03T08:35:49;97842.63;;;31.84;36.55
36502;BME280;25393;46.108;3.390;2022-08-03T08:38:20;97830.16;;;31.78;35.63
36502;BME280;25393;46.108;3.390;2022-08-03T08:40:48;97830.09;;;32.05;35.77
36502;BME280;25393;46.108;3.390;2022-08-03T08:43:18;97823.66;;;32.41;35.28
36502;BME280;25393;46.108;3.390;2022-08-03T08:45:49;97839.59;;;32.61;33.35
36502;BME280;25393;46.108;3.390;2022-08-03T08:48:22;97835.13;;;32.74;33.80
36502;BME280;25393;46.108;3.390;2022-08-03T08:50:55;97827.28;;;32.98;32.45
36502;BME280;25393;46.108;3.390;2022-08-03T08:53:28;97831.28;;;32.83;33.81
36502;BME280;25393;46.108;3.390;2022-08-03T08:55:59;97818.16;;;33.11;34.26
36502;BME280;25393;46.108;3.390;2022-08-03T08:58:36;97831.81;;;33.68;32.02
36502;BME280;25393;46.108;3.390;2022-08-03T09:01:04;97823.91;;;33.83;32.57
36502;BME280;25393;46.108;3.390;2022-08-03T09:03:34;97817.72;;;34.29;32.75
36502;BME280;25393;46.108;3.390;2022-08-03T09:06:01;97833.44;;;34.75;32.57
36502;BME280;25393;46.108;3.390;2022-08-03T09:08:32;97814.97;;;35.05;32.05
36502;BME280;25393;46.108;3.390;2022-08-03T09:10:58;97818.47;;;34.93;30.34
36502;BME280;25393;46.108;3.390;2022-08-03T09:13:25;97821.47;;;34.71;31.61
36502;BME280;25393;46.108;3.390;2022-08-03T09:18:34;97798.44;;;35.05;30.35
36502;BME280;25393;46.108;3.390;2022-08-03T09:21:21;97819.56;;;34.63;30.49
36502;BME280;25393;46.108;3.390;2022-08-03T09:23:59;97801.41;;;33.98;30.55
36502;BME280;25393;46.108;3.390;2022-08-03T09:26:30;97800.59;;;33.98;31.66
36502;BME280;25393;46.108;3.390;2022-08-03T09:29:08;97809.56;;;34.88;31.47
36502;BME280;25393;46.108;3.390;2022-08-03T09:31:44;97814.78;;;36.01;30.20
36502;BME280;25393;46.108;3.390;2022-08-03T09:34:14;97806.19;;;36.03;29.24
36502;BME280;25393;46.108;3.390;2022-08-03T09:36:49;97812.19;;;35.84;29.08
36502;BME280;25393;46.108;3.390;2022-08-03T09:39:24;97818.72;;;35.30;29.74
36502;BME280;25393;46.108;3.390;2022-08-03T09:44:38;97808.66;;;36.74;29.14
36502;BME280;25393;46.108;3.390;2022-08-03T09:47:09;97791.09;;;37.55;28.69
36502;BME280;25393;46.108;3.390;2022-08-03T09:49:37;97807.72;;;38.38;26.62
36502;BME280;25393;46.108;3.390;2022-08-03T09:52:15;97798.66;;;37.70;26.30
36502;BME280;25393;46.108;3.390;2022-08-03T09:55:08;97802.53;;;37.93;26.91
36502;BME280;25393;46.108;3.390;2022-08-03T09:58:05;97799.09;;;36.95;26.90
36502;BME280;25393;46.108;3.390;2022-08-03T10:00:51;97806.03;;;37.26;27.30
36502;BME280;25393;46.108;3.390;2022-08-03T10:03:23;97787.97;;;37.68;26.98
36502;BME280;25393;46.108;3.390;2022-08-03T10:05:50;97796.78;;;38.29;26.47
36502;BME280;25393;46.108;3.390;2022-08-03T10:08:24;97788.09;;;39.06;24.33
36502;BME280;25393;46.108;3.390;2022-08-03T10:10:51;97785.22;;;38.39;25.34
36502;BME280;25393;46.108;3.390;2022-08-03T10:13:23;97785.06;;;38.05;24.23
36502;BME280;25393;46.108;3.390;2022-08-03T10:15:52;97794.25;;;38.09;25.09
36502;BME280;25393;46.108;3.390;2022-08-03T10:18:39;97777.38;;;38.88;25.58
36502;BME280;25393;46.108;3.390;2022-08-03T10:21:07;97789.31;;;39.78;22.93
36502;BME280;25393;46.108;3.390;2022-08-03T10:23:37;97771.59;;;39.28;22.94
36502;BME280;25393;46.108;3.390;2022-08-03T10:26:06;97777.00;;;39.06;23.74
36502;BME280;25393;46.108;3.390;2022-08-03T10:28:39;97773.50;;;39.63;23.95
36502;BME280;25393;46.108;3.390;2022-08-03T10:31:12;97759.22;;;40.18;23.31
36502;BME280;25393;46.108;3.390;2022-08-03T10:33:43;97783.09;;;39.84;22.22
36502;BME280;25393;46.108;3.390;2022-08-03T10:36:23;97793.22;;;39.23;22.80
36502;BME280;25393;46.108;3.390;2022-08-03T10:38:53;97773.44;;;39.59;22.38
36502;BME280;25393;46.108;3.390;2022-08-03T10:41:22;97779.75;;;39.75;21.64
36502;BME280;25393;46.108;3.390;2022-08-03T10:44:10;97783.78;;;40.62;22.05
36502;BME280;25393;46.108;3.390;2022-08-03T10:46:42;97756.41;;;41.09;21.60
36502;BME280;25393;46.108;3.390;2022-08-03T10:49:15;97764.56;;;41.84;21.16
36502;BME280;25393;46.108;3.390;2022-08-03T10:52:01;97767.22;;;42.48;19.91
36502;BME280;25393;46.108;3.390;2022-08-03T10:54:41;97768.31;;;41.66;19.36
36502;BME280;25393;46.108;3.390;2022-08-03T11:00:18;97764.81;;;42.09;20.27
36502;BME280;25393;46.108;3.390;2022-08-03T11:03:07;97759.50;;;42.71;20.09
36502;BME280;25393;46.108;3.390;2022-08-03T11:05:42;97751.78;;;43.05;19.18
36502;BME280;25393;46.108;3.390;2022-08-03T11:08:26;97766.88;;;43.62;19.21
36502;BME280;25393;46.108;3.390;2022-08-03T11:10:58;97747.44;;;43.80;18.52
36502;BME280;25393;46.108;3.390;2022-08-03T11:13:27;97729.91;;;43.90;18.78
36502;BME280;25393;46.108;3.390;2022-08-03T11:15:58;97748.34;;;43.33;18.36
36502;BME280;25393;46.108;3.390;2022-08-03T11:18:30;97744.34;;;43.23;18.60
36502;BME280;25393;46.108;3.390;2022-08-03T11:20:58;97744.56;;;43.65;19.26
36502;BME280;25393;46.108;3.390;2022-08-03T11:23:45;97749.84;;;43.92;17.82
36502;BME280;25393;46.108;3.390;2022-08-03T11:26:32;97744.72;;;44.11;18.63
36502;BME280;25393;46.108;3.390;2022-08-03T11:29:27;97745.06;;;43.96;17.64
36502;BME280;25393;46.108;3.390;2022-08-03T11:31:55;97725.06;;;42.49;18.46
36502;BME280;25393;46.108;3.390;2022-08-03T11:34:22;97734.38;;;41.53;19.31
36502;BME280;25393;46.108;3.390;2022-08-03T11:37:22;97739.59;;;39.88;20.80
36502;BME280;25393;46.108;3.390;2022-08-03T11:39:53;97728.16;;;39.90;20.88
36502;BME280;25393;46.108;3.390;2022-08-03T11:42:41;97739.69;;;40.57;20.58
36502;BME280;25393;46.108;3.390;2022-08-03T11:45:11;97729.25;;;40.99;20.60
36502;BME280;25393;46.108;3.390;2022-08-03T11:47:41;97722.19;;;41.65;21.08
36502;BME280;25393;46.108;3.390;2022-08-03T11:50:17;97703.66;;;42.57;19.46
36502;BME280;25393;46.108;3.390;2022-08-03T11:52:48;97720.22;;;43.52;19.07
36502;BME280;25393;46.108;3.390;2022-08-03T11:55:18;97715.94;;;43.86;18.65
36502;BME280;25393;46.108;3.390;2022-08-03T11:57:48;97710.91;;;43.30;17.44
36502;BME280;25393;46.108;3.390;2022-08-03T12:00:37;97707.34;;;41.83;19.40
36502;BME280;25393;46.108;3.390;2022-08-03T12:03:09;97717.06;;;42.04;18.88
36502;BME280;25393;46.108;3.390;2022-08-03T12:05:42;97717.34;;;41.28;19.77
36502;BME280;25393;46.108;3.390;2022-08-03T12:10:54;97711.75;;;41.55;20.34
36502;BME280;25393;46.108;3.390;2022-08-03T12:13:23;97720.81;;;42.18;19.54
36502;BME280;25393;46.108;3.390;2022-08-03T12:16:17;97693.06;;;42.76;19.86
36502;BME280;25393;46.108;3.390;2022-08-03T12:18:53;97675.59;;;42.83;18.88
36502;BME280;25393;46.108;3.390;2022-08-03T12:21:23;97689.09;;;43.50;18.50
36502;BME280;25393;46.108;3.390;2022-08-03T12:23:58;97673.75;;;44.02;17.84
36502;BME280;25393;46.108;3.390;2022-08-03T12:26:31;97687.31;;;44.49;17.77
36502;BME280;25393;46.108;3.390;2022-08-03T12:29:24;97667.69;;;45.13;17.34
36502;BME280;25393;46.108;3.390;2022-08-03T12:31:54;97689.84;;;45.73;16.87
36502;BME280;25393;46.108;3.390;2022-08-03T12:34:21;97664.56;;;45.87;16.84
36502;BME280;25393;46.108;3.390;2022-08-03T12:36:53;97661.56;;;46.19;16.80
36502;BME280;25393;46.108;3.390;2022-08-03T12:39:26;97663.03;;;46.34;16.42
36502;BME280;25393;46.108;3.390;2022-08-03T12:41:56;97664.41;;;46.12;15.74
36502;BME280;25393;46.108;3.390;2022-08-03T12:44:37;97658.63;;;46.33;16.83
36502;BME280;25393;46.108;3.390;2022-08-03T12:47:03;97659.91;;;45.59;15.60
36502;BME280;25393;46.108;3.390;2022-08-03T12:49:48;97669.38;;;43.04;17.95
36502;BME280;25393;46.108;3.390;2022-08-03T12:52:21;97650.81;;;42.64;19.41
36502;BME280;25393;46.108;3.390;2022-08-03T12:54:59;97675.53;;;42.72;18.45
36502;BME280;25393;46.108;3.390;2022-08-03T12:57:41;97665.63;;;43.51;16.80
36502;BME280;25393;46.108;3.390;2022-08-03T13:00:12;97656.97;;;42.98;17.85
36502;BME280;25393;46.108;3.390;2022-08-03T13:03:03;97670.72;;;43.31;16.59
36502;BME280;25393;46.108;3.390;2022-08-03T13:05:51;97659.91;;;43.19;17.94
36502;BME280;25393;46.108;3.390;2022-08-03T13:08:22;97652.16;;;43.88;17.58
36502;BME280;25393;46.108;3.390;2022-08-03T13:10:53;97654.47;;;43.54;16.57
36502;BME280;25393;46.108;3.390;2022-08-03T13:13:38;97658.13;;;42.90;18.05
36502;BME280;25393;46.108;3.390;2022-08-03T13:16:05;97648.47;;;42.73;17.53
36502;BME280;25393;46.108;3.390;2022-08-03T13:18:31;97646.47;;;41.12;19.00
36502;BME280;25393;46.108;3.390;2022-08-03T13:20:59;97640.72;;;40.71;19.48
36502;BME280;25393;46.108;3.390;2022-08-03T13:23:25;97649.66;;;40.58;20.07
36502;BME280;25393;46.108;3.390;2022-08-03T13:25:52;97617.91;;;41.81;19.57
36502;BME280;25393;46.108;3.390;2022-08-03T13:28:21;97634.06;;;42.60;17.89
36502;BME280;25393;46.108;3.390;2022-08-03T13:30:48;97643.34;;;42.78;18.42
36502;BME280;25393;46.108;3.390;2022-08-03T13:33:17;97631.38;;;43.61;17.76
36502;BME280;25393;46.108;3.390;2022-08-03T13:35:46;97634.59;;;43.66;17.46
36502;BME280;25393;46.108;3.390;2022-08-03T13:38:13;97629.78;;;43.60;16.83
36502;BME280;25393;46.108;3.390;2022-08-03T13:40:42;97630.06;;;43.30;17.30
36502;BME280;25393;46.108;3.390;2022-08-03T13:43:11;97614.84;;;43.03;16.87
36502;BME280;25393;46.108;3.390;2022-08-03T13:45:38;97627.47;;;42.28;17.94
36502;BME280;25393;46.108;3.390;2022-08-03T13:48:04;97598.69;;;42.61;18.24
36502;BME280;25393;46.108;3.390;2022-08-03T13:50:31;97622.66;;;43.73;17.19
36502;BME280;25393;46.108;3.390;2022-08-03T13:52:58;97623.47;;;44.55;16.48
36502;BME280;25393;46.108;3.390;2022-08-03T13:55:25;97611.47;;;44.97;16.23